Hauptseite
METAR-TAF:

METAR-TAF

Flughäfen :

Flugplatz Laupheim

Laupheim, Deutschland

Breite: 48-13N, Länge: 009-55E, Höhe: 538 m

Beobachtung

Neuester Wetterbericht von vor 1 Stunde und 18 Minuten, um 18:20 UTC
Wind 5 kt aus Ost/Nordost
Temperatur 18°C
Luftfeuchtigkeit 59%
Luftdruck 1019 hPa
Sichtweite 10 km oder mehr
Leicht bewölkt in der Höhe von 4400 ft

METAR: ETHL 051820Z 06005KT 9999 FEW044 18/10 Q1019 BLU+

Zeit: 21:38 (19:38 UTC)

Prognose

Neuester Wetterbericht von vor 6 Stunden und 18 Minuten, um 13:20 UTC
Gültige Prognose vom 05 um 14 UTC bis 05 um 23 UTC
Wind 10 kt aus Ost, Böen bis zu 20 kt
Sichtweite 10 km oder mehr
Aufgelockert bewölkt in der Höhe von 5000 ft

TAF: ETHL 051320Z 0514/0523 08010G20KT 9999 NSW SCT050

Wetterbeobachtungen und Prognosen von mehr als 4000 Flughäfen (METAR und TAF Bericht).

Die verfügbaren Stationen werden durch gelbe und rote Markierungen auf der Karte dargestellt.

Führen Sie die Maus auf sie, um den Namen der Station zu sehen.

Darauf klicken, um die Beobachtung von Wetterbeobachtungen und Prognosen zu sehen.

Um die Karte zu ändern : klicken Sie auf den grünen Tasten mit einem schwarzen Kreuz Zum Vergrößern, auf den grünen Button mit einem Gedankenstrich zu verkleinern, oder auf die grünen Pfeile für benachbarte Karten.


METAR-TAF: